Time;durP1;ratioP1;P1;durP2;ratioP2;P2;SDS_P1;SDS_P2;PMS_P1;PMS_P2;Temp;Humidity;BMP_temperature;BMP_pressure;BME280_temperature;BME280_humidity;BME280_pressure;Samples;Min_cycle;Max_cycle;Signal;HPM_P1;HPM_P2
2022/06/24 00:00:03;;;;;;;6.30;5.30;;;30.50;64.90;;;;;;6096113;23;20451;-74
2022/06/24 00:02:33;;;;;;;5.93;5.30;;;30.40;65.00;;;;;;6095066;23;20862;-74
2022/06/24 00:05:04;;;;;;;9.57;5.50;;;30.40;65.30;;;;;;6119497;23;20413;-74
2022/06/24 00:07:31;;;;;;;7.43;5.23;;;30.40;65.60;;;;;;6096602;23;20468;-74
2022/06/24 00:10:02;;;;;;;6.73;5.17;;;30.40;65.90;;;;;;6119521;23;20402;-74
2022/06/24 00:12:30;;;;;;;6.30;5.70;;;30.40;66.10;;;;;;6096848;23;20371;-74
2022/06/24 00:15:00;;;;;;;9.43;5.27;;;30.30;66.10;;;;;;6096691;23;20830;-74
2022/06/24 00:17:29;;;;;;;6.00;5.40;;;30.30;66.40;;;;;;6119271;23;20594;-74
2022/06/24 00:20:00;;;;;;;6.27;5.37;;;30.30;66.50;;;;;;6119485;23;20490;-73
2022/06/24 00:22:28;;;;;;;8.90;5.63;;;30.30;66.50;;;;;;6119520;23;20462;-74
2022/06/24 00:25:07;;;;;;;6.07;5.20;;;30.30;66.60;;;;;;6096509;23;20819;-74
2022/06/24 00:27:41;;;;;;;8.70;5.57;;;30.30;66.70;;;;;;6096480;23;20794;-74
2022/06/24 00:30:24;;;;;;;5.67;4.80;;;30.30;66.80;;;;;;6119057;23;20411;-74
2022/06/24 00:32:50;;;;;;;8.80;5.60;;;30.20;66.90;;;;;;6096554;23;20857;-74
2022/06/24 00:35:19;;;;;;;9.60;4.90;;;30.20;67.20;;;;;;6119336;23;20706;-74
2022/06/24 00:37:52;;;;;;;6.20;5.60;;;30.20;67.20;;;;;;6118940;23;20525;-74
2022/06/24 00:40:18;;;;;;;6.97;5.70;;;30.20;67.30;;;;;;6096015;23;20453;-74
2022/06/24 00:42:47;;;;;;;5.47;4.90;;;30.20;67.50;;;;;;6119528;23;20461;-74
2022/06/24 00:45:45;;;;;;;6.87;5.50;;;30.20;67.70;;;;;;6094940;23;20154;-74
2022/06/24 00:48:15;;;;;;;5.70;5.03;;;30.10;68.00;;;;;;6119272;23;20819;-74
2022/06/24 00:50:48;;;;;;;7.10;5.63;;;30.10;68.00;;;;;;6119203;23;20462;-74
2022/06/24 00:53:17;;;;;;;7.20;5.80;;;30.10;68.10;;;;;;6119316;23;20414;-74
2022/06/24 00:55:48;;;;;;;6.63;5.63;;;30.10;68.20;;;;;;6120580;23;20450;-73
2022/06/24 00:58:16;;;;;;;8.60;5.73;;;30.10;68.30;;;;;;6120606;23;20430;-74
2022/06/24 01:00:44;;;;;;;8.80;6.73;;;30.00;68.60;;;;;;6098040;23;20687;-74
2022/06/24 01:03:14;;;;;;;9.50;6.60;;;30.00;69.00;;;;;;6098351;23;20371;-74
2022/06/24 01:05:43;;;;;;;11.07;6.30;;;29.90;69.70;;;;;;6098315;23;20371;-74
2022/06/24 01:08:14;;;;;;;11.13;7.13;;;29.90;70.80;;;;;;6098154;23;20780;-73
2022/06/24 01:10:49;;;;;;;14.90;6.70;;;29.90;71.40;;;;;;6098240;23;20469;-74
2022/06/24 01:13:15;;;;;;;9.37;6.73;;;29.80;71.10;;;;;;6096720;23;20402;-74
2022/06/24 01:15:46;;;;;;;8.70;7.00;;;29.80;71.40;;;;;;6121274;23;20851;-73
2022/06/24 01:18:12;;;;;;;11.27;6.10;;;29.80;71.50;;;;;;6098018;23;20438;-71
2022/06/24 01:20:40;;;;;;;9.77;5.80;;;29.70;71.40;;;;;;6096801;23;20426;-71
2022/06/24 01:23:06;;;;;;;10.33;6.13;;;29.70;71.30;;;;;;6121153;23;20390;-71
2022/06/24 01:25:32;;;;;;;8.90;6.03;;;29.70;71.20;;;;;;6098185;23;20399;-71
2022/06/24 01:27:59;;;;;;;6.73;5.10;;;29.70;71.50;;;;;;6120986;23;20226;-71
2022/06/24 01:30:28;;;;;;;9.70;5.73;;;29.60;71.90;;;;;;6120998;23;20729;-71
2022/06/24 01:32:54;;;;;;;8.83;5.57;;;29.70;72.10;;;;;;6098107;23;20426;-71
2022/06/24 01:35:22;;;;;;;7.20;5.40;;;29.60;71.70;;;;;;6121080;23;20858;-71
2022/06/24 01:37:48;;;;;;;7.77;4.87;;;29.60;71.70;;;;;;6048377;23;20442;-71
2022/06/24 01:40:14;;;;;;;5.63;4.93;;;29.60;71.70;;;;;;6097954;23;20367;-71
2022/06/24 01:42:40;;;;;;;6.70;5.07;;;29.50;71.80;;;;;;6098002;23;20421;-71
2022/06/24 01:45:07;;;;;;;6.70;5.27;;;29.50;72.10;;;;;;6121013;23;20391;-71
2022/06/24 01:47:35;;;;;;;6.00;4.90;;;29.50;72.20;;;;;;6096400;23;20421;-71
2022/06/24 01:50:05;;;;;;;7.00;5.30;;;29.50;72.30;;;;;;6120296;23;20450;-71
2022/06/24 01:52:31;;;;;;;10.23;5.00;;;29.40;72.10;;;;;;6120758;23;20382;-71
2022/06/24 01:55:00;;;;;;;7.20;5.10;;;29.40;72.00;;;;;;6121001;23;20391;-71
2022/06/24 01:57:26;;;;;;;8.57;5.10;;;29.40;72.00;;;;;;6120544;23;20490;-71
2022/06/24 01:59:53;;;;;;;7.97;5.13;;;29.40;72.10;;;;;;6097958;23;20870;-71
2022/06/24 02:02:19;;;;;;;7.83;4.40;;;29.40;72.10;;;;;;6120432;23;20399;-71
2022/06/24 02:04:48;;;;;;;8.50;5.17;;;29.30;71.90;;;;;;6096169;23;20387;-71
2022/06/24 02:07:15;;;;;;;11.03;5.33;;;29.30;72.10;;;;;;6120521;23;20391;-71
2022/06/24 02:15:16;;;;;;;9.03;4.87;;;29.30;72.30;;;;;;6097699;23;20370;-71
2022/06/24 02:17:46;;;;;;;6.80;4.60;;;29.30;72.40;;;;;;6120337;23;20510;-71
2022/06/24 02:20:14;;;;;;;6.90;4.30;;;29.20;72.30;;;;;;6120491;23;20415;-71
2022/06/24 02:22:40;;;;;;;5.40;4.43;;;29.20;72.40;;;;;;6120725;23;20675;-71
2022/06/24 02:25:06;;;;;;;6.43;4.43;;;29.20;72.40;;;;;;6120443;23;20423;-71
2022/06/24 02:27:34;;;;;;;6.10;4.40;;;29.20;72.40;;;;;;6095961;23;20461;-71
2022/06/24 02:30:03;;;;;;;5.87;4.53;;;29.20;72.50;;;;;;6097433;23;20707;-71
2022/06/24 02:32:29;;;;;;;6.20;4.23;;;29.20;72.60;;;;;;6120571;23;20868;-71
2022/06/24 02:35:00;;;;;;;5.30;4.70;;;29.10;72.60;;;;;;6097518;23;20367;-71
2022/06/24 02:37:26;;;;;;;4.83;4.33;;;29.10;72.60;;;;;;6120193;23;20533;-71
2022/06/24 02:39:54;;;;;;;5.13;4.23;;;29.10;72.60;;;;;;6120447;23;20469;-71
2022/06/24 02:42:23;;;;;;;6.50;4.00;;;29.10;72.70;;;;;;6120180;23;20437;-71
2022/06/24 02:44:51;;;;;;;9.83;4.00;;;29.00;72.70;;;;;;6120435;23;20390;-71
2022/06/24 02:47:17;;;;;;;7.60;4.40;;;29.00;72.70;;;;;;6097307;23;20509;-71
2022/06/24 02:49:48;;;;;;;3.60;3.30;;;29.00;72.70;;;;;;6120345;23;20155;-71
2022/06/24 02:52:14;;;;;;;8.93;3.90;;;29.00;72.70;;;;;;6097668;23;20398;-71
2022/06/24 02:54:40;;;;;;;4.30;3.90;;;29.00;72.80;;;;;;6097322;23;20477;-71
2022/06/24 02:57:06;;;;;;;5.43;3.87;;;28.90;72.90;;;;;;6095499;23;20515;-71
2022/06/24 02:59:32;;;;;;;4.27;3.73;;;28.90;72.90;;;;;;6096128;23;20373;-71
2022/06/24 03:02:05;;;;;;;9.07;4.27;;;28.90;73.00;;;;;;6097377;23;20370;-70
2022/06/24 03:04:31;;;;;;;6.17;4.30;;;28.90;73.00;;;;;;6120312;23;20367;-71
2022/06/24 03:06:57;;;;;;;4.47;3.70;;;28.90;73.00;;;;;;6095502;23;20418;-71
2022/06/24 03:09:23;;;;;;;4.70;3.43;;;28.90;73.10;;;;;;6095606;23;20386;-71
2022/06/24 03:11:52;;;;;;;6.70;3.97;;;28.90;73.20;;;;;;6097154;23;20367;-71
2022/06/24 03:14:20;;;;;;;4.80;3.57;;;28.80;73.10;;;;;;6119765;23;20383;-71
2022/06/24 03:16:46;;;;;;;4.10;3.47;;;28.80;73.20;;;;;;6095346;23;20386;-71
2022/06/24 03:19:17;;;;;;;5.90;3.63;;;28.80;73.20;;;;;;6119703;23;20189;-71
2022/06/24 03:21:46;;;;;;;4.90;3.93;;;28.80;73.30;;;;;;6120124;23;20403;-71
2022/06/24 03:24:15;;;;;;;5.13;3.37;;;28.80;73.20;;;;;;6095618;23;20701;-71
2022/06/24 03:26:45;;;;;;;4.43;3.27;;;28.80;73.40;;;;;;6095785;23;20379;-71
2022/06/24 03:29:11;;;;;;;6.10;3.70;;;28.70;73.40;;;;;;6119855;23;20426;-70
2022/06/24 03:31:41;;;;;;;4.70;3.50;;;28.70;73.50;;;;;;6119581;23;20830;-71
2022/06/24 03:34:08;;;;;;;6.03;3.80;;;28.70;73.50;;;;;;6119993;23;20364;-71
2022/06/24 03:36:36;;;;;;;4.53;3.47;;;28.70;73.50;;;;;;6095572;23;20387;-71
2022/06/24 03:39:04;;;;;;;4.97;3.80;;;28.70;73.50;;;;;;6095374;23;20470;-71
2022/06/24 03:41:30;;;;;;;5.13;3.90;;;28.70;73.60;;;;;;6119699;23;20506;-71
2022/06/24 03:43:56;;;;;;;5.27;3.87;;;28.60;73.60;;;;;;6095365;23;20749;-71
2022/06/24 03:46:24;;;;;;;4.80;3.27;;;28.60;73.60;;;;;;6095297;23;20768;-71
2022/06/24 03:48:52;;;;;;;4.80;3.37;;;28.60;73.70;;;;;;6097029;23;20890;-71
2022/06/24 03:51:21;;;;;;;5.27;3.60;;;28.60;73.80;;;;;;6097030;23;20378;-71
2022/06/24 03:53:46;;;;;;;3.93;3.20;;;28.60;73.80;;;;;;6119886;23;20367;-71
2022/06/24 03:56:13;;;;;;;6.03;3.20;;;28.50;73.80;;;;;;6119894;23;20460;-71
2022/06/24 03:58:39;;;;;;;4.33;3.50;;;28.50;73.80;;;;;;6119624;23;20466;-71
2022/06/24 04:01:04;;;;;;;4.20;3.80;;;28.50;73.80;;;;;;6119848;23;20395;-70
2022/06/24 04:03:31;;;;;;;5.27;3.00;;;28.50;73.90;;;;;;6071470;23;20423;-70
2022/06/24 04:05:57;;;;;;;3.97;3.60;;;28.50;73.90;;;;;;6119736;23;20442;-74
2022/06/24 04:08:26;;;;;;;4.43;3.50;;;28.50;73.90;;;;;;6096735;23;20421;-73
2022/06/24 04:10:54;;;;;;;4.90;3.87;;;28.40;73.90;;;;;;6119646;23;20398;-73
2022/06/24 04:13:23;;;;;;;5.23;3.93;;;28.40;74.00;;;;;;6095885;23;20383;-73
2022/06/24 04:15:52;;;;;;;3.50;3.20;;;28.40;74.00;;;;;;6119461;23;20442;-73
2022/06/24 04:18:18;;;;;;;3.97;3.20;;;28.40;74.10;;;;;;6118837;23;20823;-75
2022/06/24 04:20:50;;;;;;;3.67;3.37;;;28.40;74.20;;;;;;6095315;23;20451;-75
2022/06/24 04:23:16;;;;;;;3.93;3.23;;;28.30;74.00;;;;;;6070160;23;20855;-73
2022/06/24 04:25:49;;;;;;;3.90;3.10;;;28.30;74.10;;;;;;6095290;23;20405;-73
2022/06/24 04:28:15;;;;;;;4.40;3.10;;;28.30;74.20;;;;;;6095274;23;20562;-73
2022/06/24 04:30:44;;;;;;;3.80;2.90;;;28.30;74.20;;;;;;6096732;23;20465;-73
2022/06/24 04:33:13;;;;;;;4.57;3.13;;;28.30;74.30;;;;;;6097129;23;20742;-73
2022/06/24 04:35:41;;;;;;;3.07;2.70;;;28.30;74.30;;;;;;6097123;23;20492;-73
2022/06/24 04:38:09;;;;;;;3.47;3.17;;;28.20;74.20;;;;;;6073072;23;20462;-73
2022/06/24 04:40:35;;;;;;;4.33;2.80;;;28.20;74.30;;;;;;6097102;23;20953;-73
2022/06/24 04:43:02;;;;;;;3.70;3.30;;;28.20;74.30;;;;;;6098663;23;20366;-73
2022/06/24 04:45:30;;;;;;;4.87;3.20;;;28.20;74.50;;;;;;6121514;23;20363;-73
2022/06/24 04:47:57;;;;;;;3.80;3.50;;;28.20;74.60;;;;;;6096662;23;20493;-73
2022/06/24 04:50:26;;;;;;;3.50;3.07;;;28.20;74.60;;;;;;6121367;23;20482;-73
2022/06/24 04:52:55;;;;;;;2.87;2.67;;;28.20;74.80;;;;;;6073141;23;20382;-75
2022/06/24 04:55:23;;;;;;;6.40;2.90;;;28.10;74.70;;;;;;6096792;23;20398;-76
2022/06/24 04:57:50;;;;;;;4.67;2.77;;;28.10;74.70;;;;;;6096309;23;20442;-73
2022/06/24 05:00:17;;;;;;;4.00;3.60;;;28.10;74.90;;;;;;6121096;23;20363;-72
2022/06/24 05:02:46;;;;;;;3.30;3.00;;;28.10;75.00;;;;;;6103416;23;20486;31
2022/06/24 05:05:12;;;;;;;3.20;2.50;;;28.10;75.00;;;;;;6155081;23;20259;-69
2022/06/24 05:07:40;;;;;;;4.77;2.97;;;28.00;75.00;;;;;;6155310;23;20392;-69
2022/06/24 05:10:09;;;;;;;4.77;3.00;;;28.00;75.00;;;;;;6130681;23;20364;-68
2022/06/24 05:12:37;;;;;;;3.60;2.80;;;28.00;75.00;;;;;;6156998;23;20361;-69
2022/06/24 05:15:06;;;;;;;2.97;2.67;;;28.00;74.90;;;;;;6179886;23;20846;-68
2022/06/24 05:17:35;;;;;;;3.37;3.07;;;28.00;75.00;;;;;;6179369;23;20425;-69
2022/06/24 05:20:01;;;;;;;5.40;2.60;;;28.00;75.10;;;;;;6179727;23;20491;-69
2022/06/24 05:22:27;;;;;;;3.87;2.93;;;27.90;75.00;;;;;;6179325;23;20389;-69
2022/06/24 05:24:53;;;;;;;3.50;3.20;;;27.90;75.10;;;;;;6156134;23;20361;-69
2022/06/24 05:27:23;;;;;;;4.03;2.90;;;27.90;75.00;;;;;;6156332;23;20177;-68
2022/06/24 05:29:49;;;;;;;3.90;2.80;;;27.90;75.10;;;;;;6155132;23;20439;-71
2022/06/24 05:32:15;;;;;;;2.87;2.63;;;27.90;75.10;;;;;;6155259;23;20415;-76
2022/06/24 05:34:43;;;;;;;5.37;3.03;;;27.90;75.10;;;;;;6081374;23;20401;-77
2022/06/24 05:37:10;;;;;;;3.10;2.80;;;27.90;75.20;;;;;;6155982;23;20499;-76
2022/06/24 05:39:40;;;;;;;5.30;2.97;;;27.80;75.10;;;;;;6155725;23;20364;-74
2022/06/24 05:42:07;;;;;;;3.80;3.27;;;27.80;75.20;;;;;;6178116;23;20378;-75
2022/06/24 05:44:35;;;;;;;4.10;2.93;;;27.80;75.10;;;;;;6128423;23;20415;-74
2022/06/24 05:47:01;;;;;;;2.83;2.53;;;27.80;75.10;;;;;;6155329;23;20837;-68
2022/06/24 05:49:30;;;;;;;3.50;3.20;;;27.80;75.20;;;;;;6128688;23;20720;-69
2022/06/24 05:52:00;;;;;;;2.80;2.60;;;27.80;75.30;;;;;;6177202;23;20382;-68
2022/06/24 05:57:16;;;;;;;2.70;2.50;;;27.70;76.10;;;;;;6155551;23;21111;-70
2022/06/24 05:59:46;;;;;;;3.17;2.60;;;27.70;75.40;;;;;;6154569;23;20428;-70
2022/06/24 06:02:15;;;;;;;6.33;2.80;;;27.70;75.40;;;;;;6154579;23;20408;-70
2022/06/24 06:04:43;;;;;;;3.67;3.23;;;27.70;75.30;;;;;;6130431;23;20778;-70
2022/06/24 06:07:13;;;;;;;3.43;2.87;;;27.70;75.40;;;;;;6125228;23;20374;-70
2022/06/24 06:09:45;;;;;;;5.60;2.87;;;27.60;75.40;;;;;;6124928;23;20405;-70
2022/06/24 06:12:11;;;;;;;3.00;2.53;;;27.60;75.50;;;;;;6076658;23;20386;-70
2022/06/24 06:14:37;;;;;;;2.80;2.60;;;27.60;75.40;;;;;;6126351;23;20370;-70
2022/06/24 06:17:05;;;;;;;2.93;2.73;;;27.60;75.50;;;;;;6124613;23;20413;-70
2022/06/24 06:19:34;;;;;;;3.33;2.77;;;27.60;75.60;;;;;;6125087;23;20382;-70
2022/06/24 06:22:06;;;;;;;3.10;2.80;;;27.60;75.60;;;;;;6076563;23;20382;-70
2022/06/24 06:24:32;;;;;;;4.07;2.80;;;27.60;75.60;;;;;;6124832;23;20370;-70
2022/06/24 06:26:58;;;;;;;2.83;2.63;;;27.50;75.60;;;;;;6126221;23;20358;-70
2022/06/24 06:29:25;;;;;;;3.70;3.33;;;27.50;75.60;;;;;;6076376;23;20401;-70
2022/06/24 06:31:51;;;;;;;5.30;3.07;;;27.50;75.60;;;;;;6125021;23;20401;-70
2022/06/24 06:34:21;;;;;;;7.53;2.90;;;27.50;75.70;;;;;;6126469;23;20366;-70
2022/06/24 06:36:47;;;;;;;3.70;2.80;;;27.50;75.70;;;;;;6124548;23;20473;-70
2022/06/24 06:39:15;;;;;;;4.23;2.80;;;27.50;76.00;;;;;;6125107;23;20417;-70
2022/06/24 06:41:46;;;;;;;4.10;2.67;;;27.50;76.10;;;;;;6124829;23;20378;-70
2022/06/24 06:44:16;;;;;;;3.57;2.63;;;27.40;76.00;;;;;;6126628;23;20518;-70
2022/06/24 06:46:43;;;;;;;3.23;2.37;;;27.40;76.30;;;;;;6125110;23;20473;-70
2022/06/24 06:49:11;;;;;;;3.40;3.00;;;27.40;76.40;;;;;;6126361;23;20402;-70
2022/06/24 06:51:38;;;;;;;4.10;2.53;;;27.40;76.90;;;;;;6100559;23;20547;-70
2022/06/24 06:54:04;;;;;;;3.80;2.40;;;27.40;77.10;;;;;;6124856;23;20385;-70
2022/06/24 06:56:33;;;;;;;5.57;2.80;;;27.40;77.20;;;;;;6126636;23;20442;-70
2022/06/24 06:58:59;;;;;;;3.70;2.83;;;27.30;77.20;;;;;;6099372;23;20512;-71
2022/06/24 07:01:25;;;;;;;5.57;3.37;;;27.30;77.30;;;;;;6123654;23;20366;-72
2022/06/24 07:03:53;;;;;;;5.03;2.70;;;27.30;77.60;;;;;;6145010;23;20412;-72
2022/06/24 07:06:19;;;;;;;4.30;2.97;;;27.30;77.60;;;;;;6104379;23;20432;-71
2022/06/24 07:08:45;;;;;;;4.20;3.13;;;27.30;78.00;;;;;;6080021;23;20417;-73
2022/06/24 07:11:14;;;;;;;3.33;2.90;;;27.30;78.10;;;;;;6154739;23;20409;-73
2022/06/24 07:13:40;;;;;;;5.80;3.27;;;27.30;78.10;;;;;;6154764;23;20444;-72
2022/06/24 07:16:14;;;;;;;5.40;3.10;;;27.20;78.10;;;;;;6152582;23;20798;-73
2022/06/24 07:18:42;;;;;;;3.13;2.53;;;27.20;78.10;;;;;;6153252;23;20440;-72
2022/06/24 07:21:13;;;;;;;4.97;2.67;;;27.20;78.10;;;;;;6154815;23;20412;-73
2022/06/24 07:23:41;;;;;;;4.50;2.57;;;27.20;78.30;;;;;;6177752;23;20368;-72
2022/06/24 07:26:07;;;;;;;3.10;2.80;;;27.20;78.30;;;;;;6152755;23;20836;-73
2022/06/24 07:28:37;;;;;;;5.63;2.50;;;27.10;78.10;;;;;;6127871;23;20401;-71
2022/06/24 07:31:16;;;;;;;5.03;2.80;;;27.10;78.00;;;;;;6154170;23;20444;-72
2022/06/24 07:33:44;;;;;;;3.60;2.40;;;27.10;78.00;;;;;;6152685;23;20399;-73
2022/06/24 07:36:12;;;;;;;3.90;2.70;;;27.10;78.00;;;;;;6154537;23;20377;-71
2022/06/24 07:38:38;;;;;;;3.60;2.37;;;27.10;78.00;;;;;;6127819;23;20433;-70
2022/06/24 07:41:08;;;;;;;3.77;2.30;;;27.00;78.90;;;;;;6154129;23;20377;-70
2022/06/24 07:43:37;;;;;;;4.73;2.77;;;27.00;78.10;;;;;;6153926;23;20445;-70
2022/06/24 07:46:08;;;;;;;3.77;1.97;;;27.00;78.00;;;;;;6177234;23;20484;-73
2022/06/24 07:48:35;;;;;;;3.10;2.20;;;27.00;78.10;;;;;;6153687;23;20796;-70
2022/06/24 07:51:14;;;;;;;3.87;2.40;;;27.00;78.10;;;;;;6154802;23;20452;-72
2022/06/24 07:53:45;;;;;;;4.83;2.10;;;27.00;78.00;;;;;;6128313;23;20405;-70
2022/06/24 07:59:01;;;;;;;4.37;2.43;;;26.90;78.10;;;;;;6127420;23;20437;-72
2022/06/24 08:01:27;;;;;;;4.00;2.20;;;26.90;78.10;;;;;;6152191;23;20386;-72
2022/06/24 08:03:55;;;;;;;3.57;2.03;;;26.90;78.20;;;;;;6138743;23;20401;-72
2022/06/24 08:06:21;;;;;;;4.20;2.33;;;26.90;78.30;;;;;;6100687;23;20363;-72
2022/06/24 08:08:52;;;;;;;2.70;2.07;;;26.90;78.30;;;;;;6124865;23;20402;-71
2022/06/24 08:11:21;;;;;;;2.10;1.90;;;26.90;78.40;;;;;;6126203;23;20466;-70
2022/06/24 08:13:49;;;;;;;4.80;2.40;;;26.80;78.30;;;;;;6126425;23;20397;-70
2022/06/24 08:16:15;;;;;;;3.20;2.20;;;26.80;78.40;;;;;;6100613;23;20456;-70
2022/06/24 08:18:41;;;;;;;3.87;2.23;;;26.80;78.20;;;;;;6098356;23;20464;-70
2022/06/24 08:21:07;;;;;;;3.10;2.40;;;26.80;78.20;;;;;;6125542;23;20374;-70
2022/06/24 08:23:36;;;;;;;3.87;2.20;;;26.80;78.20;;;;;;6100483;23;20377;-72
2022/06/24 08:26:02;;;;;;;4.20;2.10;;;26.80;78.40;;;;;;6124861;23;20474;-72
2022/06/24 08:28:36;;;;;;;2.77;2.17;;;26.70;78.40;;;;;;6124577;23;20437;-72
2022/06/24 08:31:04;;;;;;;3.07;2.00;;;26.70;78.50;;;;;;6126214;23;20370;-73
2022/06/24 08:33:33;;;;;;;2.80;2.07;;;26.70;78.60;;;;;;6126083;23;20427;-72
2022/06/24 08:35:59;;;;;;;3.57;2.60;;;26.70;78.50;;;;;;6100018;23;20401;-72
2022/06/24 08:38:26;;;;;;;3.50;2.60;;;26.70;78.70;;;;;;6076063;23;20434;-72
2022/06/24 08:41:01;;;;;;;2.50;2.00;;;26.70;79.50;;;;;;6126128;23;20373;-72
2022/06/24 08:43:31;;;;;;;3.93;2.43;;;26.60;78.70;;;;;;6126300;23;20705;-72
2022/06/24 08:46:00;;;;;;;2.37;2.17;;;26.60;78.70;;;;;;6126715;23;20682;-73
2022/06/24 08:48:33;;;;;;;4.63;2.70;;;26.60;78.70;;;;;;6100155;23;20474;-72
2022/06/24 08:51:02;;;;;;;3.97;2.50;;;26.60;78.80;;;;;;6100515;23;20849;-72
2022/06/24 08:53:34;;;;;;;3.30;2.30;;;26.60;78.90;;;;;;6124684;23;20441;-73
2022/06/24 08:56:03;;;;;;;3.33;2.13;;;26.60;78.90;;;;;;6100285;23;20374;-73
2022/06/24 08:58:29;;;;;;;3.00;2.70;;;26.60;79.10;;;;;;6099230;23;20450;-73
2022/06/24 09:00:55;;;;;;;2.60;2.33;;;26.50;79.00;;;;;;6124385;23;20421;-73
2022/06/24 09:03:21;;;;;;;3.90;2.20;;;26.60;79.00;;;;;;6125982;23;20394;-73
2022/06/24 09:05:52;;;;;;;2.73;2.50;;;26.60;79.20;;;;;;6125680;23;20370;-73
2022/06/24 09:08:18;;;;;;;1.90;1.80;;;26.50;79.20;;;;;;6125400;23;20405;-73
2022/06/24 09:11:28;;;;;;;3.30;2.43;;;26.50;79.20;;;;;;6125595;23;20388;-73
2022/06/24 09:13:56;;;;;;;2.70;2.30;;;26.50;79.30;;;;;;6115219;23;20405;-72
2022/06/24 09:16:27;;;;;;;3.37;2.60;;;26.50;79.40;;;;;;6124110;23;20393;-73
2022/06/24 09:18:59;;;;;;;4.07;2.70;;;26.50;79.50;;;;;;6123820;23;20424;-73
2022/06/24 09:21:38;;;;;;;2.70;2.30;;;26.50;79.50;;;;;;6125462;23;20416;-73
2022/06/24 09:24:07;;;;;;;4.07;2.20;;;26.40;79.50;;;;;;6124668;23;20358;-73
2022/06/24 09:26:46;;;;;;;3.70;2.30;;;26.40;79.50;;;;;;6098858;23;20374;-75
2022/06/24 09:29:16;;;;;;;2.40;2.10;;;26.40;79.80;;;;;;6100233;23;20426;-72
2022/06/24 09:31:43;;;;;;;5.10;2.60;;;26.40;79.70;;;;;;6125055;23;20715;-73
2022/06/24 09:34:16;;;;;;;4.03;2.80;;;26.40;79.80;;;;;;6100065;23;20763;-72
2022/06/24 09:36:47;;;;;;;3.67;3.17;;;26.40;79.80;;;;;;6125663;23;20414;-72
2022/06/24 09:39:15;;;;;;;3.37;2.80;;;26.40;80.00;;;;;;6127284;23;20768;-73
2022/06/24 09:41:50;;;;;;;3.73;3.37;;;26.40;80.00;;;;;;6125902;23;20916;-72
2022/06/24 09:44:19;;;;;;;5.73;2.87;;;26.40;80.40;;;;;;6127071;23;20822;-72
2022/06/24 09:46:48;;;;;;;3.13;2.83;;;26.30;80.50;;;;;;6099807;23;20871;-72
2022/06/24 09:49:18;;;;;;;3.40;3.10;;;26.30;81.00;;;;;;6123268;23;20409;-73
2022/06/24 09:51:50;;;;;;;4.40;3.10;;;26.30;81.50;;;;;;6125450;23;20880;-73
2022/06/24 09:54:20;;;;;;;3.73;2.87;;;26.30;81.70;;;;;;6124991;23;20425;-73
2022/06/24 09:56:49;;;;;;;3.60;2.97;;;26.30;81.80;;;;;;6098919;23;20370;-74
2022/06/24 10:02:02;;;;;;;4.90;2.93;;;26.30;81.50;;;;;;6099310;23;20885;-74
2022/06/24 10:04:32;;;;;;;3.37;2.70;;;26.30;81.50;;;;;;6124568;23;20401;-72
2022/06/24 10:07:04;;;;;;;2.70;2.50;;;26.30;81.50;;;;;;6124929;23;20878;-72
2022/06/24 10:09:32;;;;;;;4.17;3.23;;;26.20;81.10;;;;;;6099260;23;20924;-72
2022/06/24 10:12:00;;;;;;;2.93;2.60;;;26.30;81.10;;;;;;6099876;23;20393;-75
2022/06/24 10:14:33;;;;;;;3.20;2.90;;;26.30;81.00;;;;;;6125326;23;20435;-71
2022/06/24 10:17:00;;;;;;;2.83;2.47;;;26.30;81.20;;;;;;6125030;23;20449;-71
2022/06/24 10:19:32;;;;;;;3.23;2.93;;;26.20;81.40;;;;;;6124685;23;20358;-71
2022/06/24 10:22:04;;;;;;;3.03;2.83;;;26.30;81.10;;;;;;6074690;23;20443;-71
2022/06/24 10:24:40;;;;;;;3.20;2.70;;;26.30;80.90;;;;;;6074563;23;20393;-71
2022/06/24 10:27:08;;;;;;;3.10;2.87;;;26.30;80.80;;;;;;6122520;23;20390;-71
2022/06/24 10:29:36;;;;;;;2.00;1.90;;;26.30;80.80;;;;;;6098286;23;20401;-71
2022/06/24 10:32:06;;;;;;;2.73;2.43;;;26.30;80.80;;;;;;6123639;23;20392;-71
2022/06/24 10:34:39;;;;;;;3.20;2.90;;;26.30;80.80;;;;;;6123133;23;20390;-72
2022/06/24 10:37:09;;;;;;;4.03;3.00;;;26.30;80.90;;;;;;6123598;23;20366;-71
2022/06/24 10:39:57;;;;;;;3.50;3.20;;;26.30;81.10;;;;;;6124236;23;20428;-71
2022/06/24 10:42:24;;;;;;;3.33;3.03;;;26.30;81.10;;;;;;6098946;23;20912;-72
2022/06/24 10:44:56;;;;;;;3.10;2.80;;;26.30;81.30;;;;;;6122479;23;20366;-72
2022/06/24 10:47:22;;;;;;;3.70;3.27;;;26.30;81.10;;;;;;6122413;23;20424;-72
2022/06/24 10:50:00;;;;;;;3.17;2.97;;;26.30;81.00;;;;;;6097541;23;20421;-72
2022/06/24 10:52:36;;;;;;;3.20;2.90;;;26.40;81.10;;;;;;6074858;23;20398;-72
2022/06/24 10:57:49;;;;;;;4.30;3.20;;;26.40;81.70;;;;;;6124628;23;20435;-72
2022/06/24 11:00:26;;;;;;;4.13;3.80;;;26.40;82.20;;;;;;6124584;23;20865;-72
2022/06/24 11:03:01;;;;;;;3.60;3.30;;;26.40;82.20;;;;;;6123043;23;20397;-72
2022/06/24 11:05:32;;;;;;;3.63;3.33;;;26.40;82.10;;;;;;6123763;23;20369;-72
2022/06/24 11:07:59;;;;;;;3.90;3.53;;;26.40;82.00;;;;;;6123724;23;20405;-72
2022/06/24 11:10:31;;;;;;;3.77;3.27;;;26.40;81.70;;;;;;6120967;23;20398;-72
2022/06/24 11:13:03;;;;;;;4.37;3.30;;;26.40;82.10;;;;;;6122603;23;20468;-72
2022/06/24 11:15:34;;;;;;;3.80;3.40;;;26.40;82.20;;;;;;6122049;23;20918;-72
2022/06/24 11:18:10;;;;;;;4.67;3.77;;;26.50;82.50;;;;;;6121365;23;20771;-72
2022/06/24 11:20:45;;;;;;;3.40;3.10;;;26.50;82.70;;;;;;6097510;23;20393;-73
2022/06/24 11:23:14;;;;;;;3.63;3.20;;;26.50;82.90;;;;;;6122631;23;20381;-72
2022/06/24 11:25:46;;;;;;;3.50;3.30;;;26.50;82.80;;;;;;6122460;23;20437;-72
2022/06/24 11:28:20;;;;;;;3.80;3.50;;;26.50;82.60;;;;;;6124008;23;20489;-70
2022/06/24 11:30:47;;;;;;;5.30;3.60;;;26.50;82.40;;;;;;6097941;23;20942;-69
2022/06/24 11:33:19;;;;;;;3.70;3.40;;;26.50;82.50;;;;;;6124250;23;20388;-70
2022/06/24 11:35:50;;;;;;;3.60;3.30;;;26.50;82.40;;;;;;6122605;23;20402;-70
2022/06/24 11:38:23;;;;;;;3.83;3.53;;;26.50;83.30;;;;;;6124008;23;20427;-71
2022/06/24 11:40:54;;;;;;;3.40;3.03;;;26.50;82.50;;;;;;6124219;23;20397;-72
2022/06/24 11:43:25;;;;;;;3.50;3.20;;;26.60;82.60;;;;;;6098421;23;20458;-71
2022/06/24 11:46:00;;;;;;;4.13;3.73;;;26.50;82.40;;;;;;6124677;23;20441;-71
2022/06/24 11:48:30;;;;;;;3.53;3.33;;;26.50;82.30;;;;;;6123853;23;20421;-71
2022/06/24 11:50:58;;;;;;;3.70;3.37;;;26.50;82.10;;;;;;6124327;23;20392;-71
2022/06/24 11:53:25;;;;;;;3.97;3.40;;;26.50;82.10;;;;;;6124213;23;20418;-72
2022/06/24 11:55:53;;;;;;;3.80;3.50;;;26.50;82.30;;;;;;6124677;23;20371;-70
2022/06/24 11:58:20;;;;;;;4.50;4.10;;;26.50;82.40;;;;;;6127067;23;20913;-71
2022/06/24 12:00:50;;;;;;;3.30;3.00;;;26.50;82.40;;;;;;6077395;23;20413;-71
2022/06/24 12:03:16;;;;;;;3.93;3.63;;;26.50;82.50;;;;;;6126295;23;20385;-72
2022/06/24 12:05:46;;;;;;;4.03;3.73;;;26.50;82.50;;;;;;6129998;23;20731;-73
2022/06/24 12:08:15;;;;;;;4.40;4.00;;;26.50;82.40;;;;;;6129515;23;20727;-73
2022/06/24 12:10:53;;;;;;;3.90;3.60;;;26.60;82.60;;;;;;6104928;23;20455;-72
2022/06/24 12:13:29;;;;;;;4.50;3.60;;;26.50;82.60;;;;;;6128552;23;20876;-72
2022/06/24 12:15:56;;;;;;;3.57;3.30;;;26.50;82.80;;;;;;6127841;23;20365;-72
2022/06/24 12:18:28;;;;;;;3.53;3.23;;;26.60;82.80;;;;;;6102359;23;20432;-71
2022/06/24 12:21:06;;;;;;;4.10;3.73;;;26.60;82.70;;;;;;6156264;23;20397;-73
2022/06/24 12:23:36;;;;;;;3.80;3.50;;;26.60;82.60;;;;;;6160072;23;20369;-73
2022/06/24 12:26:12;;;;;;;4.00;3.70;;;26.60;82.60;;;;;;6108821;23;20479;-73
2022/06/24 12:28:38;;;;;;;4.97;4.47;;;26.60;82.60;;;;;;6133081;23;20450;-73
2022/06/24 12:31:10;;;;;;;3.50;3.20;;;26.60;82.60;;;;;;6133299;23;20388;-72
2022/06/24 12:33:43;;;;;;;4.17;3.83;;;26.60;82.60;;;;;;6133323;23;20373;-72
2022/06/24 12:36:14;;;;;;;4.10;3.77;;;26.60;83.30;;;;;;6159107;23;20391;-72
2022/06/24 12:38:45;;;;;;;4.43;4.03;;;26.60;82.50;;;;;;6133261;23;20435;-73
2022/06/24 12:41:16;;;;;;;3.50;3.20;;;26.60;82.40;;;;;;6133156;23;20392;-73
2022/06/24 12:44:03;;;;;;;3.97;3.67;;;26.60;83.10;;;;;;6157963;23;20435;-72
2022/06/24 12:46:32;;;;;;;3.80;3.37;;;26.60;82.30;;;;;;6133513;23;20361;-73
2022/06/24 12:51:47;;;;;;;4.03;3.63;;;26.70;82.50;;;;;;6135926;23;20429;-73
2022/06/24 12:54:15;;;;;;;4.40;4.10;;;26.70;82.70;;;;;;6111161;23;20419;-72
2022/06/24 12:56:44;;;;;;;4.23;3.83;;;26.70;83.20;;;;;;6135247;23;20375;-73
2022/06/24 12:59:10;;;;;;;4.93;4.53;;;26.70;83.40;;;;;;6135390;23;20428;-73
2022/06/24 13:01:47;;;;;;;5.70;4.07;;;26.70;83.40;;;;;;6159927;23;20415;-73
2022/06/24 13:04:14;;;;;;;4.50;4.20;;;26.80;83.70;;;;;;6161106;23;20428;-73
2022/06/24 13:06:42;;;;;;;5.00;4.50;;;26.80;84.20;;;;;;6161555;23;20366;-73
2022/06/24 13:09:10;;;;;;;5.60;4.60;;;26.80;84.30;;;;;;6160061;23;20421;-73
2022/06/24 13:11:36;;;;;;;4.90;4.50;;;26.80;84.00;;;;;;6161049;23;20412;-73
2022/06/24 13:14:04;;;;;;;4.67;4.30;;;26.80;83.90;;;;;;6172477;23;20470;-74